BRMA51 CYTR-CYTR

Flight info

Callsign BRMA51
Flight time 1h 24m
Altitude 2000
Route VFR
Aircraft C130/M-SDE2E3FGRY/H

Departure

Time 2026-05-06 21:10
Airport CFB Trenton (CYTR)

Arrival

Time 2026-05-06 22:34
Airport CFB Trenton (CYTR)
Time Latitude Longitude Altitude Speed Heading
2026-05-06 20:55 44.11084 -77.53526 272 ft 0 kts 164°
2026-05-06 21:01 44.11081 -77.53525 272 ft 1 kts 164°
2026-05-06 21:01 44.11084 -77.53474 271 ft 3 kts 55°
2026-05-06 21:01 44.11089 -77.53432 271 ft 6 kts 77°
2026-05-06 21:01 44.11104 -77.53372 271 ft 5 kts 43°
2026-05-06 21:02 44.11134 -77.53375 272 ft 3 kts 343°
2026-05-06 21:02 44.11167 -77.53384 272 ft 6 kts
2026-05-06 21:02 44.11221 -77.53378 273 ft 9 kts 349°
2026-05-06 21:02 44.11285 -77.53425 274 ft 11 kts 321°
2026-05-06 21:03 44.11341 -77.53471 276 ft 7 kts 19°
2026-05-06 21:03 44.11377 -77.53417 276 ft 7 kts 50°
2026-05-06 21:03 44.11412 -77.53359 275 ft 8 kts 50°
2026-05-06 21:03 44.11449 -77.53294 274 ft 8 kts 50°
2026-05-06 21:04 44.11496 -77.53215 273 ft 13 kts 51°
2026-05-06 21:04 44.11571 -77.53086 272 ft 20 kts 50°
2026-05-06 21:04 44.11670 -77.52918 271 ft 22 kts 51°
2026-05-06 21:04 44.11767 -77.52753 270 ft 21 kts 48°
2026-05-06 21:05 44.11858 -77.52607 270 ft 18 kts 49°
2026-05-06 21:05 44.11934 -77.52470 271 ft 16 kts 51°
2026-05-06 21:05 44.12004 -77.52352 272 ft 14 kts 51°
2026-05-06 21:05 44.12063 -77.52250 274 ft 12 kts 51°
2026-05-06 21:06 44.12118 -77.52157 275 ft 13 kts 50°
2026-05-06 21:06 44.12212 -77.51997 277 ft 27 kts 50°
2026-05-06 21:06 44.12296 -77.51836 279 ft 16 kts 85°
2026-05-06 21:06 44.12307 -77.51702 280 ft 8 kts 48°
2026-05-06 21:07 44.12328 -77.51674 280 ft 3 kts 41°
2026-05-06 21:07 44.12348 -77.51653 280 ft 3 kts 36°
2026-05-06 21:07 44.12367 -77.51636 281 ft 3 kts 30°
2026-05-06 21:07 44.12377 -77.51629 281 ft 0 kts 18°
2026-05-06 21:08 44.12384 -77.51627 281 ft 9 kts 11°
2026-05-06 21:09 44.12423 -77.51638 281 ft 2 kts 268°
2026-05-06 21:09 44.12368 -77.51728 280 ft 43 kts 229°
2026-05-06 21:09 44.12022 -77.52318 273 ft 108 kts 230°
2026-05-06 21:09 44.11510 -77.53230 484 ft 125 kts 232°
2026-05-06 21:10 44.10973 -77.54232 818 ft 136 kts 233°
2026-05-06 21:10 44.10389 -77.55374 1039 ft 157 kts 236°
2026-05-06 21:10 44.10081 -77.56882 1272 ft 176 kts 276°
2026-05-06 21:10 44.10612 -77.58513 1437 ft 198 kts 302°
2026-05-06 21:11 44.11646 -77.59802 1822 ft 205 kts 329°
2026-05-06 21:11 44.12949 -77.60757 1928 ft 223 kts 331°
2026-05-06 21:11 44.14397 -77.61772 2003 ft 238 kts 332°
2026-05-06 21:11 44.15939 -77.62590 2213 ft 244 kts 343°
2026-05-06 21:12 44.17614 -77.63227 2111 ft 247 kts 336°
2026-05-06 21:12 44.19047 -77.64439 2171 ft 242 kts 322°
2026-05-06 21:12 44.20372 -77.65929 2108 ft 244 kts 319°
2026-05-06 21:12 44.21698 -77.67447 1957 ft 249 kts 319°
2026-05-06 21:13 44.23051 -77.68941 1898 ft 249 kts 321°
2026-05-06 21:13 44.24426 -77.70389 1789 ft 245 kts 322°
2026-05-06 21:13 44.25789 -77.71815 1632 ft 242 kts 321°
2026-05-06 21:13 44.26987 -77.73389 1607 ft 234 kts 309°
2026-05-06 21:14 44.28014 -77.75111 1545 ft 230 kts 307°
2026-05-06 21:14 44.28998 -77.76831 1456 ft 228 kts 307°
2026-05-06 21:14 44.29805 -77.78077 1426 ft 224 kts 321°
2026-05-06 21:14 44.31245 -77.78779 1364 ft 223 kts
2026-05-06 21:15 44.32744 -77.78297 1245 ft 225 kts 15°
2026-05-06 21:15 44.34262 -77.77720 1059 ft 226 kts 15°
2026-05-06 21:15 44.35732 -77.77083 1102 ft 214 kts 18°
2026-05-06 21:15 44.37104 -77.76636 1181 ft 202 kts 18°
2026-05-06 21:16 44.38246 -77.75518 1100 ft 200 kts 46°
2026-05-06 21:16 44.39264 -77.74200 1063 ft 200 kts 40°
2026-05-06 21:16 44.40333 -77.72925 1032 ft 201 kts 41°
2026-05-06 21:16 44.41370 -77.71590 1042 ft 209 kts 43°
2026-05-06 21:17 44.42583 -77.70458 1156 ft 211 kts 15°
2026-05-06 21:17 44.44054 -77.70515 1160 ft 219 kts 343°
2026-05-06 21:17 44.45533 -77.71159 1148 ft 225 kts 342°
2026-05-06 21:17 44.47011 -77.71833 1214 ft 223 kts 343°
2026-05-06 21:18 44.48499 -77.72451 1345 ft 220 kts 340°
2026-05-06 21:18 44.49599 -77.73774 1665 ft 214 kts 296°
2026-05-06 21:18 44.49694 -77.75819 1775 ft 219 kts 251°
2026-05-06 21:18 44.48738 -77.77438 1840 ft 223 kts 207°
2026-05-06 21:19 44.47232 -77.77622 1873 ft 223 kts 162°
2026-05-06 21:19 44.45997 -77.76338 1793 ft 224 kts 121°
2026-05-06 21:19 44.45744 -77.74259 1783 ft 222 kts 74°
2026-05-06 21:19 44.46669 -77.72660 1824 ft 218 kts 34°
2026-05-06 21:20 44.47934 -77.71429 1699 ft 223 kts 34°
2026-05-06 21:20 44.49211 -77.70167 1617 ft 226 kts 36°
2026-05-06 21:20 44.50512 -77.68899 1516 ft 228 kts 33°
2026-05-06 21:20 44.51833 -77.67690 1436 ft 230 kts 33°
2026-05-06 21:21 44.53185 -77.66476 1381 ft 230 kts 32°
2026-05-06 21:21 44.54533 -77.65291 1360 ft 228 kts 33°
2026-05-06 21:21 44.55839 -77.64066 1379 ft 225 kts 34°
2026-05-06 21:21 44.57141 -77.62811 1355 ft 224 kts 34°
2026-05-06 21:22 44.58404 -77.61569 1344 ft 223 kts 36°
2026-05-06 21:22 44.59649 -77.60269 1381 ft 220 kts 37°
2026-05-06 21:22 44.60527 -77.58639 1623 ft 206 kts 76°
2026-05-06 21:22 44.60339 -77.56677 1558 ft 216 kts 117°
2026-05-06 21:23 44.59491 -77.54868 1575 ft 223 kts 124°
2026-05-06 21:23 44.58585 -77.53059 1538 ft 231 kts 125°
2026-05-06 21:23 44.57509 -77.51403 1514 ft 235 kts 145°
2026-05-06 21:23 44.56027 -77.50414 1524 ft 237 kts 157°
2026-05-06 21:24 44.54483 -77.49563 1525 ft 240 kts 159°
2026-05-06 21:24 44.52900 -77.48743 1467 ft 244 kts 160°
2026-05-06 21:24 44.51288 -77.47937 1419 ft 247 kts 160°
2026-05-06 21:24 44.49654 -77.47176 1405 ft 247 kts 164°
2026-05-06 21:25 44.47958 -77.46723 1367 ft 249 kts 172°
2026-05-06 21:25 44.46220 -77.46471 1253 ft 253 kts 174°
2026-05-06 21:25 44.44475 -77.46272 1279 ft 250 kts 176°
2026-05-06 21:25 44.42753 -77.46364 1238 ft 251 kts 188°
2026-05-06 21:26 44.41029 -77.46764 1203 ft 250 kts 190°
2026-05-06 21:26 44.39345 -77.47234 1318 ft 245 kts 193°
2026-05-06 21:26 44.37693 -77.47816 1302 ft 246 kts 189°
2026-05-06 21:26 44.36017 -77.47960 1463 ft 239 kts 179°
2026-05-06 21:27 44.34356 -77.47836 1506 ft 239 kts 168°
2026-05-06 21:27 44.32744 -77.47210 1537 ft 240 kts 163°
2026-05-06 21:27 44.31137 -77.46544 1586 ft 239 kts 163°
2026-05-06 21:27 44.29544 -77.45835 1511 ft 245 kts 160°
2026-05-06 21:28 44.27948 -77.45076 1586 ft 242 kts 161°
2026-05-06 21:28 44.26328 -77.44331 1574 ft 244 kts 161°
2026-05-06 21:28 44.24773 -77.43624 1603 ft 225 kts 161°
2026-05-06 21:28 44.24331 -77.43413 1626 ft 220 kts 162°
2026-05-06 21:29 44.22936 -77.42693 1483 ft 212 kts 160°
2026-05-06 21:29 44.21580 -77.41944 1288 ft 203 kts 160°
2026-05-06 21:29 44.20305 -77.41338 1318 ft 186 kts 172°
2026-05-06 21:29 44.19081 -77.41504 1624 ft 176 kts 198°
2026-05-06 21:30 44.17934 -77.42172 1677 ft 177 kts 215°
2026-05-06 21:30 44.17037 -77.43297 1599 ft 173 kts 231°
2026-05-06 21:30 44.16373 -77.44619 1423 ft 163 kts 239°
2026-05-06 21:30 44.15790 -77.45904 1168 ft 147 kts 237°
2026-05-06 21:31 44.15212 -77.46999 934 ft 137 kts 229°
2026-05-06 21:31 44.14584 -77.48008 885 ft 141 kts 230°
2026-05-06 21:31 44.13950 -77.49071 822 ft 137 kts 231°
2026-05-06 21:31 44.13356 -77.50075 660 ft 134 kts 231°
2026-05-06 21:32 44.12776 -77.51057 421 ft 130 kts 230°
2026-05-06 21:32 44.11667 -77.52932 351 ft 131 kts 231°
2026-05-06 21:32 44.11061 -77.53973 622 ft 145 kts 231°
2026-05-06 21:33 44.10221 -77.54764 918 ft 156 kts 196°
2026-05-06 21:33 44.09070 -77.54657 949 ft 183 kts 162°
2026-05-06 21:33 44.07876 -77.53908 1009 ft 196 kts 157°
2026-05-06 21:33 44.06611 -77.53056 1111 ft 202 kts 156°
2026-05-06 21:34 44.05342 -77.52241 1314 ft 202 kts 157°
2026-05-06 21:34 44.04052 -77.51434 1447 ft 206 kts 157°
2026-05-06 21:34 44.02711 -77.50623 1507 ft 212 kts 158°
2026-05-06 21:34 44.01347 -77.49845 1660 ft 212 kts 159°
2026-05-06 21:35 43.99947 -77.49044 1707 ft 217 kts 153°
2026-05-06 21:35 43.98941 -77.47538 1895 ft 215 kts 118°
2026-05-06 21:35 43.98513 -77.45568 2059 ft 216 kts 97°
2026-05-06 21:35 43.98490 -77.43474 2115 ft 220 kts 87°
2026-05-06 21:36 43.98535 -77.41329 2105 ft 225 kts 87°
2026-05-06 21:36 43.98729 -77.39188 2145 ft 223 kts 72°
2026-05-06 21:36 43.99395 -77.37250 2246 ft 220 kts 59°
2026-05-06 21:36 44.00110 -77.35384 2344 ft 219 kts 60°
2026-05-06 21:37 44.00735 -77.33437 2392 ft 221 kts 66°
2026-05-06 21:37 44.01332 -77.31464 2473 ft 221 kts 66°
2026-05-06 21:37 44.01927 -77.29518 2550 ft 221 kts 65°
2026-05-06 21:37 44.02620 -77.27643 2698 ft 214 kts 55°
2026-05-06 21:38 44.03465 -77.25968 2626 ft 212 kts 53°
2026-05-06 21:38 44.04332 -77.24361 2570 ft 200 kts 45°
2026-05-06 21:38 44.05433 -77.23456 2543 ft 179 kts 10°
2026-05-06 21:38 44.06630 -77.23737 2299 ft 176 kts 328°
2026-05-06 21:39 44.07449 -77.25025 1942 ft 180 kts 301°
2026-05-06 21:39 44.08118 -77.26369 2023 ft 166 kts 306°
2026-05-06 21:39 44.08879 -77.27675 1643 ft 177 kts 305°
2026-05-06 21:39 44.09326 -77.29164 1366 ft 160 kts 281°
2026-05-06 21:40 44.09146 -77.30554 905 ft 142 kts 236°
2026-05-06 21:40 44.08487 -77.31538 733 ft 136 kts 227°
2026-05-06 21:40 44.07874 -77.32474 548 ft 129 kts 228°
2026-05-06 21:40 44.07269 -77.33385 370 ft 125 kts 227°
2026-05-06 21:41 44.06693 -77.34270 520 ft 126 kts 229°
2026-05-06 21:41 44.06091 -77.35201 872 ft 131 kts 229°
2026-05-06 21:41 44.05397 -77.36066 1130 ft 146 kts 206°
2026-05-06 21:41 44.04316 -77.35870 1128 ft 179 kts 148°
2026-05-06 21:42 44.03742 -77.34331 1267 ft 192 kts 93°
2026-05-06 21:42 44.04219 -77.32645 1463 ft 191 kts 46°
2026-05-06 21:42 44.05143 -77.31348 1553 ft 190 kts 44°
2026-05-06 21:42 44.06089 -77.30013 1507 ft 196 kts 44°
2026-05-06 21:43 44.07043 -77.28685 1368 ft 190 kts 44°
2026-05-06 21:43 44.08097 -77.28015 1271 ft 162 kts 351°
2026-05-06 21:43 44.08940 -77.28762 1325 ft 141 kts 298°
2026-05-06 21:43 44.09090 -77.30071 1139 ft 142 kts 262°
2026-05-06 21:44 44.08658 -77.31288 953 ft 141 kts 227°
2026-05-06 21:44 44.07986 -77.32291 630 ft 141 kts 229°
2026-05-06 21:44 44.07344 -77.33270 375 ft 134 kts 227°
2026-05-06 21:44 44.06755 -77.34173 489 ft 128 kts 229°
2026-05-06 21:45 44.06148 -77.35132 790 ft 136 kts 230°
2026-05-06 21:45 44.05472 -77.36097 1155 ft 140 kts 213°
2026-05-06 21:45 44.04487 -77.36099 1387 ft 162 kts 156°
2026-05-06 21:45 44.03811 -77.34783 1516 ft 182 kts 101°
2026-05-06 21:46 44.04127 -77.33123 1751 ft 186 kts 51°
2026-05-06 21:46 44.05009 -77.31742 1808 ft 191 kts 46°
2026-05-06 21:46 44.05882 -77.30379 1870 ft 190 kts 47°
2026-05-06 21:46 44.06782 -77.28999 1841 ft 185 kts 46°
2026-05-06 21:47 44.07639 -77.27852 1703 ft 162 kts 26°
2026-05-06 21:47 44.08669 -77.27854 1721 ft 149 kts 327°
2026-05-06 21:47 44.09246 -77.28960 1707 ft 142 kts 283°
2026-05-06 21:47 44.09162 -77.30332 1497 ft 141 kts 242°
2026-05-06 21:48 44.08588 -77.31383 1249 ft 135 kts 229°
2026-05-06 21:48 44.07952 -77.32346 783 ft 138 kts 229°
2026-05-06 21:48 44.07304 -77.33332 387 ft 132 kts 227°
2026-05-06 21:48 44.06728 -77.34219 515 ft 123 kts 230°
2026-05-06 21:49 44.06163 -77.35112 882 ft 128 kts 230°
2026-05-06 21:49 44.05428 -77.35815 1228 ft 138 kts 190°
2026-05-06 21:49 44.04493 -77.35273 1378 ft 165 kts 133°
2026-05-06 21:49 44.04234 -77.33719 1615 ft 176 kts 76°
2026-05-06 21:50 44.04925 -77.32260 1730 ft 189 kts 46°
2026-05-06 21:50 44.05832 -77.30911 1718 ft 193 kts 45°
2026-05-06 21:50 44.06771 -77.29547 1719 ft 195 kts 44°
2026-05-06 21:50 44.07699 -77.28252 1748 ft 179 kts 42°
2026-05-06 21:51 44.08724 -77.27792 1684 ft 151 kts 343°
2026-05-06 21:51 44.09421 -77.28691 1478 ft 139 kts 283°
2026-05-06 21:51 44.09287 -77.30057 1317 ft 151 kts 248°
2026-05-06 21:51 44.08695 -77.31234 983 ft 144 kts 230°
2026-05-06 21:52 44.08036 -77.32219 667 ft 138 kts 228°
2026-05-06 21:52 44.07395 -77.33196 392 ft 133 kts 228°
2026-05-06 21:52 44.06807 -77.34090 422 ft 124 kts 229°
2026-05-06 21:52 44.06246 -77.35001 773 ft 128 kts 231°
2026-05-06 21:53 44.05638 -77.35993 1028 ft 141 kts 230°
2026-05-06 21:53 44.04970 -77.37059 1306 ft 152 kts 231°
2026-05-06 21:53 44.04260 -77.38171 1620 ft 157 kts 230°
2026-05-06 21:53 44.03463 -77.39351 1552 ft 189 kts 229°
2026-05-06 21:54 44.02512 -77.40772 1607 ft 211 kts 229°
2026-05-06 21:54 44.01491 -77.42296 1766 ft 213 kts 229°
2026-05-06 21:54 44.00470 -77.43805 1992 ft 215 kts 229°
2026-05-06 21:54 43.99454 -77.45300 2004 ft 214 kts 229°
2026-05-06 21:55 43.98428 -77.46806 2005 ft 215 kts 229°
2026-05-06 21:55 43.97396 -77.48319 2004 ft 215 kts 229°
2026-05-06 21:55 43.96369 -77.49813 1996 ft 215 kts 227°
2026-05-06 21:55 43.94991 -77.50655 1998 ft 224 kts 183°
2026-05-06 21:56 43.93547 -77.49970 2002 ft 226 kts 143°
2026-05-06 21:56 43.92392 -77.48490 2000 ft 227 kts 137°
2026-05-06 21:56 43.91265 -77.46942 1999 ft 227 kts 136°
2026-05-06 21:56 43.90119 -77.45357 2014 ft 244 kts 136°
2026-05-06 21:57 43.88860 -77.43610 2012 ft 260 kts 136°
2026-05-06 21:57 43.87575 -77.41818 2012 ft 265 kts 136°
2026-05-06 21:57 43.86277 -77.39981 1993 ft 264 kts 131°
2026-05-06 21:57 43.85440 -77.37735 1999 ft 263 kts 109°
2026-05-06 21:58 43.84831 -77.35339 1995 ft 264 kts 109°
2026-05-06 21:58 43.84239 -77.32964 1991 ft 263 kts 109°
2026-05-06 21:58 43.83641 -77.30557 1995 ft 263 kts 109°
2026-05-06 21:58 43.83053 -77.28185 1996 ft 261 kts 109°
2026-05-06 21:59 43.82500 -77.25902 1969 ft 235 kts 104°
2026-05-06 21:59 43.82661 -77.23862 1969 ft 204 kts 57°
2026-05-06 21:59 43.83738 -77.22678 1986 ft 202 kts 14°
2026-05-06 21:59 43.85129 -77.22485 1998 ft 202 kts 360°
2026-05-06 22:00 43.86531 -77.22451 1989 ft 200 kts 359°
2026-05-06 22:00 43.87919 -77.22420 1989 ft 200 kts 359°
2026-05-06 22:00 43.89315 -77.22388 1988 ft 202 kts 359°
2026-05-06 22:00 43.90719 -77.22359 1987 ft 200 kts 359°
2026-05-06 22:01 43.92023 -77.22324 1981 ft 176 kts 359°
2026-05-06 22:01 43.93164 -77.22275 2009 ft 160 kts 359°
2026-05-06 22:01 43.94281 -77.22227 1987 ft 159 kts 359°
2026-05-06 22:01 43.95385 -77.22188 1983 ft 161 kts 359°
2026-05-06 22:02 43.96497 -77.22152 1991 ft 160 kts 359°
2026-05-06 22:02 43.97613 -77.22114 1987 ft 161 kts 359°
2026-05-06 22:02 43.98731 -77.22079 1989 ft 161 kts 359°
2026-05-06 22:02 43.99842 -77.22046 1992 ft 159 kts 359°
2026-05-06 22:03 44.00952 -77.22008 1912 ft 161 kts 359°
2026-05-06 22:03 44.02077 -77.21968 1781 ft 160 kts 359°
2026-05-06 22:03 44.03185 -77.21941 1699 ft 160 kts 356°
2026-05-06 22:03 44.04177 -77.22533 1686 ft 156 kts 312°
2026-05-06 22:04 44.04863 -77.23690 1690 ft 157 kts 313°
2026-05-06 22:04 44.05700 -77.24669 1702 ft 155 kts 319°
2026-05-06 22:04 44.06545 -77.25623 1690 ft 155 kts 319°
2026-05-06 22:04 44.07387 -77.26567 1653 ft 156 kts 319°
2026-05-06 22:05 44.08227 -77.27511 1480 ft 154 kts 319°
2026-05-06 22:05 44.09005 -77.28442 1260 ft 135 kts 305°
2026-05-06 22:05 44.09224 -77.29640 1316 ft 132 kts 263°
2026-05-06 22:05 44.08881 -77.30852 1069 ft 140 kts 238°
2026-05-06 22:06 44.08260 -77.31876 750 ft 135 kts 229°
2026-05-06 22:06 44.07650 -77.32806 513 ft 130 kts 228°
2026-05-06 22:06 44.07049 -77.33718 371 ft 124 kts 228°
2026-05-06 22:06 44.06461 -77.34641 645 ft 131 kts 229°
2026-05-06 22:07 44.05832 -77.35608 871 ft 137 kts 229°
2026-05-06 22:07 44.05184 -77.36595 1104 ft 140 kts 229°
2026-05-06 22:07 44.04505 -77.37638 1320 ft 147 kts 230°
2026-05-06 22:07 44.03794 -77.38740 1558 ft 162 kts 229°
2026-05-06 22:08 44.02939 -77.40025 1480 ft 198 kts 229°
2026-05-06 22:08 44.01974 -77.41469 1492 ft 203 kts 229°
2026-05-06 22:08 44.00970 -77.42961 1508 ft 214 kts 229°
2026-05-06 22:08 43.99957 -77.44459 1506 ft 213 kts 229°
2026-05-06 22:09 43.98935 -77.45963 1506 ft 213 kts 229°
2026-05-06 22:09 43.98090 -77.47602 1482 ft 210 kts 253°
2026-05-06 22:09 43.97739 -77.49569 1508 ft 211 kts 258°
2026-05-06 22:09 43.97426 -77.51545 1498 ft 209 kts 259°
2026-05-06 22:10 43.97120 -77.53528 1503 ft 214 kts 260°
2026-05-06 22:10 43.97327 -77.55532 1490 ft 215 kts 301°
2026-05-06 22:10 43.98220 -77.57184 1503 ft 215 kts 308°
2026-05-06 22:10 43.99171 -77.58787 1497 ft 214 kts 309°
2026-05-06 22:11 44.00288 -77.60128 1475 ft 218 kts 338°
2026-05-06 22:11 44.01792 -77.60089 1504 ft 220 kts 18°
2026-05-06 22:11 44.03111 -77.59276 1478 ft 197 kts 23°
2026-05-06 22:11 44.04236 -77.58503 1508 ft 164 kts 24°
2026-05-06 22:12 44.05240 -77.57792 1504 ft 162 kts 24°
2026-05-06 22:12 44.06251 -77.57080 1442 ft 164 kts 24°
2026-05-06 22:12 44.07278 -77.56360 1247 ft 165 kts 24°
2026-05-06 22:12 44.08301 -77.55623 1058 ft 167 kts 34°
2026-05-06 22:13 44.09048 -77.54479 845 ft 153 kts 51°
2026-05-06 22:13 44.09654 -77.53396 768 ft 140 kts 52°
2026-05-06 22:13 44.10259 -77.52303 676 ft 141 kts 52°
2026-05-06 22:13 44.10863 -77.51221 711 ft 141 kts 53°
2026-05-06 22:14 44.11444 -77.50138 695 ft 139 kts 53°
2026-05-06 22:14 44.12011 -77.49052 689 ft 137 kts 54°
2026-05-06 22:14 44.12571 -77.48005 706 ft 131 kts 43°
2026-05-06 22:14 44.13416 -77.47877 858 ft 129 kts 327°
2026-05-06 22:15 44.13742 -77.48976 870 ft 133 kts 264°
2026-05-06 22:15 44.13347 -77.50105 714 ft 130 kts 231°
2026-05-06 22:15 44.12774 -77.51058 437 ft 126 kts 231°
2026-05-06 22:15 44.12226 -77.51974 278 ft 119 kts 230°
2026-05-06 22:16 44.11676 -77.52925 401 ft 132 kts 232°
2026-05-06 22:16 44.10935 -77.53419 711 ft 124 kts 175°
2026-05-06 22:16 44.10304 -77.52563 759 ft 143 kts 104°
2026-05-06 22:16 44.10645 -77.51286 788 ft 146 kts 50°
2026-05-06 22:17 44.11276 -77.50207 869 ft 142 kts 50°
2026-05-06 22:17 44.11898 -77.49174 775 ft 138 kts 49°
2026-05-06 22:17 44.12531 -77.48165 765 ft 135 kts 44°
2026-05-06 22:17 44.13332 -77.47961 822 ft 119 kts 326°
2026-05-06 22:18 44.13625 -77.48968 788 ft 121 kts 264°
2026-05-06 22:18 44.13326 -77.50079 656 ft 125 kts 239°
2026-05-06 22:18 44.12787 -77.51026 422 ft 126 kts 230°
2026-05-06 22:18 44.12250 -77.51932 278 ft 113 kts 231°
2026-05-06 22:19 44.11746 -77.52795 403 ft 119 kts 229°
2026-05-06 22:19 44.11014 -77.53028 653 ft 120 kts 161°
2026-05-06 22:19 44.10606 -77.52037 745 ft 133 kts 86°
2026-05-06 22:19 44.11038 -77.50857 784 ft 141 kts 57°
2026-05-06 22:20 44.11576 -77.49725 822 ft 141 kts 56°
2026-05-06 22:20 44.12107 -77.48572 862 ft 142 kts 58°
2026-05-06 22:20 44.12868 -77.47925 1028 ft 128 kts 352°
2026-05-06 22:20 44.13456 -77.48628 1128 ft 115 kts 283°
2026-05-06 22:21 44.13432 -77.49754 791 ft 125 kts 253°
2026-05-06 22:21 44.12962 -77.50756 514 ft 125 kts 230°
2026-05-06 22:21 44.12406 -77.51670 300 ft 122 kts 230°
2026-05-06 22:21 44.11882 -77.52562 299 ft 121 kts 231°
2026-05-06 22:22 44.11359 -77.53449 430 ft 119 kts 230°
2026-05-06 22:22 44.10843 -77.54349 561 ft 118 kts 232°
2026-05-06 22:22 44.10353 -77.55239 709 ft 114 kts 230°
2026-05-06 22:22 44.09618 -77.55691 952 ft 125 kts 187°
2026-05-06 22:23 44.08726 -77.55622 1020 ft 130 kts 179°
2026-05-06 22:23 44.07817 -77.55518 1081 ft 135 kts 179°
2026-05-06 22:23 44.06821 -77.55383 1103 ft 151 kts 178°
2026-05-06 22:23 44.05728 -77.55235 1039 ft 160 kts 178°
2026-05-06 22:24 44.04647 -77.55218 1131 ft 151 kts 201°
2026-05-06 22:24 44.04082 -77.56276 1299 ft 141 kts 269°
2026-05-06 22:24 44.04584 -77.57367 1311 ft 146 kts 330°
2026-05-06 22:24 44.05629 -77.57317 1128 ft 156 kts 17°
2026-05-06 22:25 44.06596 -77.56771 867 ft 145 kts 22°
2026-05-06 22:25 44.07530 -77.56134 792 ft 152 kts 26°
2026-05-06 22:25 44.08453 -77.55399 747 ft 155 kts 31°
2026-05-06 22:25 44.09307 -77.54518 703 ft 147 kts 43°
2026-05-06 22:26 44.09913 -77.53383 590 ft 146 kts 62°
2026-05-06 22:26 44.10379 -77.52115 645 ft 144 kts 64°
2026-05-06 22:26 44.10843 -77.50958 685 ft 136 kts 57°
2026-05-06 22:26 44.11386 -77.49873 703 ft 138 kts 54°
2026-05-06 22:27 44.11941 -77.48776 692 ft 137 kts 55°
2026-05-06 22:27 44.12635 -77.47980 777 ft 127 kts
2026-05-06 22:27 44.13421 -77.48325 923 ft 122 kts 311°
2026-05-06 22:27 44.13602 -77.49450 918 ft 129 kts 259°
2026-05-06 22:28 44.13115 -77.50507 621 ft 135 kts 230°
2026-05-06 22:28 44.12526 -77.51467 331 ft 128 kts 230°
2026-05-06 22:28 44.11980 -77.52390 301 ft 125 kts 231°
2026-05-06 22:28 44.11292 -77.53043 584 ft 127 kts 185°
2026-05-06 22:29 44.10562 -77.52319 708 ft 145 kts 116°
2026-05-06 22:29 44.10738 -77.50947 796 ft 155 kts 59°
2026-05-06 22:29 44.11296 -77.49733 742 ft 146 kts 57°
2026-05-06 22:29 44.11836 -77.48556 717 ft 142 kts 58°
2026-05-06 22:30 44.12537 -77.47704 818 ft 132 kts 10°
2026-05-06 22:30 44.13340 -77.48019 930 ft 121 kts 312°
2026-05-06 22:30 44.13593 -77.49104 930 ft 122 kts 268°
2026-05-06 22:30 44.13277 -77.50214 730 ft 130 kts 233°
2026-05-06 22:31 44.12693 -77.51192 421 ft 132 kts 231°
2026-05-06 22:31 44.12120 -77.52157 277 ft 124 kts 231°
2026-05-06 22:31 44.11531 -77.53073 479 ft 127 kts 214°
2026-05-06 22:31 44.10684 -77.52957 658 ft 138 kts 145°
2026-05-06 22:32 44.10393 -77.51685 739 ft 149 kts 78°
2026-05-06 22:32 44.10895 -77.50456 658 ft 143 kts 57°
2026-05-06 22:32 44.11448 -77.49297 657 ft 145 kts 56°
2026-05-06 22:32 44.12011 -77.48127 661 ft 146 kts 56°
2026-05-06 22:33 44.12843 -77.47583 786 ft 132 kts 348°
2026-05-06 22:33 44.13484 -77.48354 890 ft 128 kts 289°
2026-05-06 22:33 44.13515 -77.49558 781 ft 124 kts 253°
2026-05-06 22:33 44.13065 -77.50570 529 ft 126 kts 230°
2026-05-06 22:34 44.12512 -77.51491 318 ft 120 kts 230°
2026-05-06 22:34 44.12026 -77.52315 273 ft 95 kts 230°
2026-05-06 22:34 44.11702 -77.52866 271 ft 45 kts 231°
2026-05-06 22:34 44.11528 -77.53160 273 ft 32 kts 231°
2026-05-06 22:35 44.11447 -77.53297 274 ft 14 kts 231°
2026-05-06 22:35 44.11392 -77.53391 275 ft 10 kts 231°
2026-05-06 22:35 44.11350 -77.53461 275 ft 7 kts 221°
2026-05-06 22:35 44.11309 -77.53454 275 ft 6 kts 140°
2026-05-06 22:36 44.11271 -77.53410 274 ft 7 kts 143°
2026-05-06 22:36 44.11224 -77.53378 273 ft 7 kts 165°
2026-05-06 22:36 44.11174 -77.53361 272 ft 7 kts 164°
2026-05-06 22:36 44.11126 -77.53343 271 ft 7 kts 166°
2026-05-06 22:37 44.11101 -77.53371 271 ft 4 kts 255°
2026-05-06 22:37 44.11081 -77.53474 271 ft 19 kts 252°
2026-05-06 22:37 44.11068 -77.53562 272 ft 3 kts 307°
2026-05-06 22:37 44.11095 -77.53580 273 ft 0 kts 344°